createdAt,value
2023-07-05T00:01:55.034Z,24.90
2023-07-05T00:04:40.529Z,24.80
2023-07-05T00:07:26.497Z,24.80
2023-07-05T00:10:12.065Z,24.70
2023-07-05T00:12:57.664Z,24.60
2023-07-05T00:15:47.641Z,24.70
2023-07-05T00:18:33.383Z,24.70
2023-07-05T00:21:19.079Z,24.60
2023-07-05T00:24:05.048Z,24.60
2023-07-05T00:26:50.475Z,24.60
2023-07-05T00:29:36.689Z,24.60
2023-07-05T00:32:22.748Z,24.60
2023-07-05T00:35:09.395Z,24.60
2023-07-05T00:37:55.849Z,24.60
2023-07-05T00:40:41.918Z,24.50
2023-07-05T00:43:27.852Z,24.40
2023-07-05T00:46:19.913Z,24.30
2023-07-05T00:49:09.740Z,24.30
2023-07-05T00:51:57.687Z,24.40
2023-07-05T00:54:46.170Z,24.40
2023-07-05T00:57:35.096Z,24.40
2023-07-05T01:00:22.643Z,24.30
2023-07-05T01:03:11.793Z,24.30
2023-07-05T01:05:59.861Z,24.30
2023-07-05T01:08:45.661Z,24.30
2023-07-05T01:11:34.634Z,24.30
2023-07-05T01:14:33.510Z,24.20
2023-07-05T01:17:37.478Z,24.20
2023-07-05T01:20:24.014Z,24.20
2023-07-05T01:23:18.741Z,24.20
2023-07-05T01:26:23.386Z,24.20
2023-07-05T01:29:17.948Z,24.20
2023-07-05T01:32:08.228Z,24.10
2023-07-05T01:35:11.044Z,24.10
2023-07-05T01:37:56.794Z,24.00
2023-07-05T01:40:45.664Z,24.10
2023-07-05T01:43:32.969Z,24.10
2023-07-05T01:46:28.632Z,24.20
2023-07-05T01:49:32.890Z,24.20
2023-07-05T01:52:24.741Z,24.20
2023-07-05T01:55:23.892Z,24.20
2023-07-05T01:58:20.218Z,24.10
2023-07-05T02:01:06.902Z,24.10
2023-07-05T02:03:53.687Z,24.10
2023-07-05T02:06:39.794Z,24.00
2023-07-05T02:09:25.676Z,24.00
2023-07-05T02:12:13.288Z,24.10
2023-07-05T02:14:59.452Z,24.00
2023-07-05T02:17:46.338Z,24.00
2023-07-05T02:20:33.214Z,24.10
2023-07-05T02:23:19.771Z,24.10
2023-07-05T02:26:06.192Z,24.10
2023-07-05T02:28:52.914Z,24.10
2023-07-05T02:31:38.446Z,24.10
2023-07-05T02:34:24.019Z,24.10
2023-07-05T02:37:11.382Z,24.10
2023-07-05T02:39:57.280Z,24.00
2023-07-05T02:42:42.956Z,24.00
2023-07-05T02:45:29.033Z,24.10
2023-07-05T02:48:14.540Z,24.00
2023-07-05T02:51:00.526Z,24.00
2023-07-05T02:53:46.053Z,23.90
2023-07-05T02:56:31.623Z,23.80
2023-07-05T02:59:17.504Z,23.80
2023-07-05T03:02:03.519Z,23.80
2023-07-05T03:04:49.538Z,23.70
2023-07-05T03:07:35.303Z,23.70
2023-07-05T03:10:21.345Z,23.70
2023-07-05T03:13:07.310Z,23.60
2023-07-05T03:15:53.084Z,23.60
2023-07-05T03:18:39.127Z,23.50
2023-07-05T03:21:24.727Z,23.60
2023-07-05T03:24:10.274Z,23.50
2023-07-05T03:26:56.131Z,23.40
2023-07-05T03:29:41.863Z,23.30
2023-07-05T03:32:27.789Z,23.40
2023-07-05T03:35:13.393Z,23.50
2023-07-05T03:38:01.392Z,23.40
2023-07-05T03:40:47.056Z,23.40
2023-07-05T03:43:36.777Z,23.40
2023-07-05T03:46:23.016Z,23.40
2023-07-05T03:49:08.857Z,23.40
2023-07-05T03:51:54.598Z,23.40
2023-07-05T03:54:40.158Z,23.40
2023-07-05T03:57:25.907Z,23.40
2023-07-05T04:00:12.099Z,23.40
2023-07-05T04:03:01.823Z,23.40
2023-07-05T04:05:47.472Z,23.30
2023-07-05T04:08:33.165Z,23.30
2023-07-05T04:11:19.285Z,23.20
2023-07-05T04:14:05.128Z,23.30
2023-07-05T04:16:50.856Z,23.30
2023-07-05T04:19:36.610Z,23.10
2023-07-05T04:22:22.958Z,23.10
2023-07-05T04:25:10.402Z,23.10
2023-07-05T04:27:56.272Z,23.10
2023-07-05T04:30:41.762Z,23.10
2023-07-05T04:33:27.654Z,23.10
2023-07-05T04:36:26.119Z,23.10
2023-07-05T04:39:13.780Z,22.90
2023-07-05T04:41:59.364Z,22.90
2023-07-05T04:44:45.177Z,23.00
2023-07-05T04:47:30.904Z,23.10
2023-07-05T04:50:16.651Z,23.10
2023-07-05T04:53:02.446Z,23.00
2023-07-05T04:55:49.083Z,23.00
2023-07-05T04:58:35.078Z,23.10
2023-07-05T05:01:20.892Z,23.20
2023-07-05T05:04:06.845Z,23.30
2023-07-05T05:06:52.724Z,23.40
2023-07-05T05:09:41.670Z,23.50
2023-07-05T05:12:27.681Z,23.30
2023-07-05T05:15:13.342Z,23.10
2023-07-05T05:17:59.085Z,23.20
2023-07-05T05:20:45.413Z,23.20
2023-07-05T05:23:31.312Z,23.20
2023-07-05T05:26:16.717Z,23.50
2023-07-05T05:29:02.589Z,23.70
2023-07-05T05:31:49.052Z,24.00
2023-07-05T05:34:35.023Z,24.10
2023-07-05T05:37:20.925Z,24.40
2023-07-05T05:40:07.486Z,24.50
2023-07-05T05:42:53.646Z,24.60
2023-07-05T05:45:39.745Z,24.80
2023-07-05T05:48:25.409Z,24.80
2023-07-05T05:51:11.232Z,24.80
2023-07-05T05:53:56.850Z,25.10
2023-07-05T05:56:42.527Z,25.30
2023-07-05T05:59:28.482Z,25.50
2023-07-05T06:02:15.020Z,25.50
2023-07-05T06:05:00.810Z,25.60
2023-07-05T06:07:46.368Z,25.90
2023-07-05T06:10:32.113Z,26.10
2023-07-05T06:13:17.990Z,26.30
2023-07-05T06:18:53.504Z,26.70
2023-07-05T06:21:39.470Z,26.70
2023-07-05T06:24:24.965Z,26.70
2023-07-05T06:27:10.827Z,26.80
2023-07-05T06:29:56.940Z,27.00
2023-07-05T06:32:46.529Z,27.10
2023-07-05T06:35:33.474Z,27.30
2023-07-05T06:38:20.142Z,27.50
2023-07-05T06:41:06.234Z,27.60
2023-07-05T06:43:51.672Z,27.70
2023-07-05T06:46:37.398Z,27.80
2023-07-05T06:49:23.360Z,28.10
2023-07-05T06:52:09.124Z,28.00
2023-07-05T06:54:54.889Z,28.40
2023-07-05T06:57:40.782Z,28.50
2023-07-05T07:00:27.685Z,28.70
2023-07-05T07:03:13.335Z,28.90
2023-07-05T07:05:59.559Z,29.10
2023-07-05T07:08:45.605Z,29.30
2023-07-05T07:11:31.324Z,29.20
2023-07-05T07:14:17.103Z,29.20
2023-07-05T07:17:04.247Z,29.40
2023-07-05T07:19:49.898Z,29.50
2023-07-05T07:22:35.648Z,29.20
2023-07-05T07:25:21.176Z,29.30
2023-07-05T07:28:06.904Z,29.40
2023-07-05T07:30:52.892Z,29.70
2023-07-05T07:33:38.786Z,29.70
2023-07-05T07:36:26.287Z,29.90
2023-07-05T07:39:12.264Z,30.00
2023-07-05T07:41:58.526Z,30.10
2023-07-05T07:44:44.691Z,30.30
2023-07-05T07:47:30.317Z,30.30
2023-07-05T07:50:16.005Z,30.40
2023-07-05T07:53:01.616Z,30.40
2023-07-05T07:55:47.268Z,29.90
2023-07-05T07:58:33.079Z,30.00
2023-07-05T08:01:21.638Z,30.40
2023-07-05T08:04:08.946Z,30.40
2023-07-05T08:06:54.397Z,30.50
2023-07-05T08:09:40.204Z,30.10
2023-07-05T08:12:25.857Z,30.50
2023-07-05T08:15:11.976Z,30.20
2023-07-05T08:17:57.827Z,30.30
2023-07-05T08:20:44.622Z,30.30
2023-07-05T08:23:31.077Z,30.70
2023-07-05T08:26:21.710Z,30.00
2023-07-05T08:29:27.312Z,30.30
2023-07-05T08:32:39.257Z,30.60
2023-07-05T08:35:26.602Z,31.10
2023-07-05T08:38:13.384Z,30.90
2023-07-05T08:41:06.309Z,31.00
2023-07-05T08:44:02.439Z,31.10
2023-07-05T08:46:52.231Z,31.50
2023-07-05T08:49:48.988Z,31.60
2023-07-05T08:52:43.020Z,31.70
2023-07-05T08:55:32.867Z,31.50
2023-07-05T08:58:25.393Z,31.20
2023-07-05T09:01:16.356Z,31.20
2023-07-05T09:04:01.906Z,31.40
2023-07-05T09:06:51.117Z,31.50
2023-07-05T09:09:52.772Z,31.70
2023-07-05T09:12:46.781Z,31.60
2023-07-05T09:15:37.802Z,31.40
2023-07-05T09:18:35.865Z,31.50
2023-07-05T09:21:24.713Z,31.20
2023-07-05T09:24:30.649Z,31.30
2023-07-05T09:27:18.702Z,30.90
2023-07-05T09:30:11.371Z,30.40
2023-07-05T09:32:59.980Z,29.90
2023-07-05T09:35:47.580Z,30.00
2023-07-05T09:38:35.919Z,30.50
2023-07-05T09:41:29.889Z,30.60
2023-07-05T09:44:18.021Z,30.60
2023-07-05T09:47:03.887Z,30.80
2023-07-05T09:49:50.323Z,30.70
2023-07-05T09:52:36.152Z,30.90
2023-07-05T09:55:22.138Z,31.00
2023-07-05T09:58:14.583Z,30.30
2023-07-05T10:01:05.844Z,30.10
2023-07-05T10:03:56.235Z,30.30
2023-07-05T10:06:43.714Z,30.60
2023-07-05T10:09:30.201Z,30.80
2023-07-05T10:12:16.084Z,31.00
2023-07-05T10:15:02.315Z,30.60
2023-07-05T10:17:48.852Z,30.10
2023-07-05T10:20:39.010Z,30.30
2023-07-05T10:23:24.873Z,29.60
2023-07-05T10:26:11.275Z,29.10
2023-07-05T10:28:57.965Z,29.20
2023-07-05T10:31:51.887Z,29.40
2023-07-05T10:34:42.513Z,29.60
2023-07-05T10:37:35.882Z,30.00
2023-07-05T10:40:23.054Z,30.20
2023-07-05T10:43:09.110Z,30.30
2023-07-05T10:45:55.458Z,30.20
2023-07-05T10:48:42.605Z,30.30
2023-07-05T10:51:32.435Z,30.40
2023-07-05T10:54:37.212Z,30.40
2023-07-05T10:57:27.276Z,30.40
2023-07-05T11:00:30.697Z,30.30
2023-07-05T11:03:25.214Z,30.00
2023-07-05T11:06:11.969Z,30.00
2023-07-05T11:08:58.431Z,30.10
2023-07-05T11:11:46.509Z,30.10
2023-07-05T11:14:32.676Z,30.20
2023-07-05T11:17:24.727Z,30.40
2023-07-05T11:20:28.826Z,30.40
2023-07-05T11:23:34.778Z,30.60
2023-07-05T11:26:30.127Z,30.70
2023-07-05T11:29:28.345Z,30.90
2023-07-05T11:32:14.628Z,30.70
2023-07-05T11:35:04.882Z,30.70
2023-07-05T11:37:50.672Z,30.60
2023-07-05T11:40:55.821Z,30.60
2023-07-05T11:43:42.418Z,30.70
2023-07-05T11:46:39.442Z,30.70
2023-07-05T11:49:29.600Z,30.80
2023-07-05T11:52:23.433Z,30.60
2023-07-05T11:55:17.527Z,30.60
2023-07-05T11:58:22.947Z,30.50
2023-07-05T12:01:13.581Z,30.70
2023-07-05T12:04:00.867Z,30.80
2023-07-05T12:06:46.800Z,30.90
2023-07-05T12:09:37.727Z,31.00
2023-07-05T12:12:23.401Z,31.10
2023-07-05T12:15:10.810Z,31.00
2023-07-05T12:17:56.748Z,30.70
2023-07-05T12:20:43.833Z,30.90
2023-07-05T12:23:30.142Z,31.00
2023-07-05T12:26:28.410Z,30.90
2023-07-05T12:29:40.307Z,30.60
2023-07-05T12:32:27.379Z,30.70
2023-07-05T12:35:19.997Z,30.60
2023-07-05T12:38:16.240Z,30.50
2023-07-05T12:41:03.094Z,30.30
2023-07-05T12:43:49.603Z,30.10
2023-07-05T12:46:38.917Z,30.00
2023-07-05T12:49:30.252Z,30.10
2023-07-05T12:52:21.001Z,30.20
2023-07-05T12:55:23.579Z,30.10
2023-07-05T12:58:10.152Z,30.10
2023-07-05T13:00:58.136Z,30.00
2023-07-05T13:03:48.409Z,30.00
2023-07-05T13:06:35.760Z,29.80
2023-07-05T13:09:29.933Z,29.70
2023-07-05T13:12:16.055Z,29.90
2023-07-05T13:15:05.848Z,30.00
2023-07-05T13:17:51.464Z,30.10
2023-07-05T13:20:37.263Z,30.30
2023-07-05T13:23:29.765Z,30.70
2023-07-05T13:26:27.990Z,30.60
2023-07-05T13:29:22.251Z,30.40
2023-07-05T13:32:21.426Z,29.80
2023-07-05T13:35:07.231Z,29.90
2023-07-05T13:37:53.207Z,29.60
2023-07-05T13:40:39.017Z,29.70
2023-07-05T13:43:24.455Z,29.80
2023-07-05T13:46:10.164Z,29.90
2023-07-05T13:48:57.929Z,29.90
2023-07-05T13:51:48.809Z,29.80
2023-07-05T13:54:34.442Z,29.70
2023-07-05T13:57:20.616Z,29.70
2023-07-05T14:00:10.709Z,29.90
2023-07-05T14:02:58.454Z,30.20
2023-07-05T14:05:44.088Z,30.30
2023-07-05T14:08:29.826Z,30.40
2023-07-05T14:11:23.127Z,30.60
2023-07-05T14:14:11.951Z,30.60
2023-07-05T14:16:57.891Z,30.30
2023-07-05T14:19:44.129Z,30.30
2023-07-05T14:22:29.766Z,30.30
2023-07-05T14:25:20.230Z,30.20
2023-07-05T14:28:05.712Z,30.40
2023-07-05T14:30:52.387Z,30.60
2023-07-05T14:33:38.149Z,30.30
2023-07-05T14:36:24.188Z,30.10
2023-07-05T14:39:10.481Z,30.10
2023-07-05T14:41:56.079Z,30.00
2023-07-05T14:44:42.835Z,30.10
2023-07-05T14:47:28.253Z,30.30
2023-07-05T14:50:14.657Z,30.30
2023-07-05T14:53:03.152Z,30.50
2023-07-05T14:55:48.880Z,30.60
2023-07-05T14:58:34.767Z,30.60
2023-07-05T15:01:20.425Z,30.70
2023-07-05T15:04:05.748Z,30.90
2023-07-05T15:06:51.685Z,30.80
2023-07-05T15:09:37.220Z,30.70
2023-07-05T15:12:24.501Z,30.70
2023-07-05T15:15:13.595Z,30.90
2023-07-05T15:17:59.047Z,31.00
2023-07-05T15:20:44.975Z,30.90
2023-07-05T15:23:31.475Z,31.00
2023-07-05T15:26:17.129Z,30.90
2023-07-05T15:29:04.581Z,30.80
2023-07-05T15:31:51.782Z,30.70
2023-07-05T15:34:42.058Z,30.60
2023-07-05T15:37:28.308Z,30.40
2023-07-05T15:40:19.022Z,30.40
2023-07-05T15:43:04.559Z,30.30
2023-07-05T15:45:50.086Z,30.20
2023-07-05T15:48:35.848Z,30.20
2023-07-05T15:51:21.710Z,30.20
2023-07-05T15:54:07.908Z,30.10
2023-07-05T15:56:53.537Z,30.10
2023-07-05T15:59:47.583Z,30.10
2023-07-05T16:02:42.274Z,30.00
2023-07-05T16:05:32.052Z,30.00
2023-07-05T16:08:17.955Z,30.00
2023-07-05T16:11:03.975Z,29.90
2023-07-05T16:13:49.758Z,29.90
2023-07-05T16:16:35.251Z,29.80
2023-07-05T16:19:20.971Z,29.90
2023-07-05T16:22:06.865Z,29.70
2023-07-05T16:24:52.643Z,29.70
2023-07-05T16:27:38.190Z,29.60
2023-07-05T16:30:24.097Z,29.60
2023-07-05T16:33:09.869Z,29.50
2023-07-05T16:35:56.871Z,29.50
2023-07-05T16:38:42.813Z,29.50
2023-07-05T16:41:28.888Z,29.40
2023-07-05T16:44:14.637Z,29.40
2023-07-05T16:47:03.288Z,29.30
2023-07-05T16:49:48.881Z,29.20
2023-07-05T16:52:34.940Z,29.20
2023-07-05T16:55:20.447Z,29.10
2023-07-05T16:58:06.201Z,29.20
2023-07-05T17:01:21.453Z,29.10
2023-07-05T17:04:07.873Z,29.00
2023-07-05T17:06:54.218Z,29.00
2023-07-05T17:09:39.644Z,29.00
2023-07-05T17:12:25.619Z,29.00
2023-07-05T17:15:12.216Z,29.00
2023-07-05T17:18:00.080Z,29.00
2023-07-05T17:20:59.033Z,28.90
2023-07-05T17:23:44.444Z,28.90
2023-07-05T17:26:30.171Z,28.90
2023-07-05T17:29:16.176Z,28.90
2023-07-05T17:32:02.306Z,28.90
2023-07-05T17:34:48.253Z,28.90
2023-07-05T17:37:35.403Z,28.90
2023-07-05T17:40:21.417Z,28.90
2023-07-05T17:43:07.188Z,28.90
2023-07-05T17:46:11.848Z,29.10
2023-07-05T17:48:59.598Z,28.90
2023-07-05T17:51:45.202Z,28.80
2023-07-05T17:54:31.098Z,28.80
2023-07-05T17:57:18.697Z,28.80
2023-07-05T18:00:04.930Z,28.80
2023-07-05T18:02:59.452Z,28.80
2023-07-05T18:05:45.100Z,28.70
2023-07-05T18:08:30.773Z,28.70
2023-07-05T18:11:17.176Z,28.70
2023-07-05T18:14:03.186Z,28.60
2023-07-05T18:16:49.300Z,28.60
2023-07-05T18:19:35.167Z,28.50
2023-07-05T18:22:20.677Z,28.50
2023-07-05T18:25:06.661Z,28.50
2023-07-05T18:28:02.265Z,28.40
2023-07-05T18:30:51.894Z,28.40
2023-07-05T18:33:38.381Z,28.30
2023-07-05T18:36:26.030Z,28.30
2023-07-05T18:39:12.365Z,28.30
2023-07-05T18:41:58.325Z,28.20
2023-07-05T18:44:45.531Z,28.20
2023-07-05T18:47:31.222Z,28.10
2023-07-05T18:50:16.755Z,28.00
2023-07-05T18:53:04.366Z,28.00
2023-07-05T18:55:54.654Z,28.00
2023-07-05T18:58:41.439Z,27.80
2023-07-05T19:01:29.236Z,27.80
2023-07-05T19:04:15.147Z,27.70
2023-07-05T19:07:00.895Z,27.70
2023-07-05T19:09:46.672Z,27.70
2023-07-05T19:12:32.954Z,27.60
2023-07-05T19:15:19.105Z,27.50
2023-07-05T19:18:04.624Z,27.50
2023-07-05T19:20:50.361Z,27.50
2023-07-05T19:23:36.489Z,27.40
2023-07-05T19:26:22.750Z,27.40
2023-07-05T19:29:08.473Z,27.30
2023-07-05T19:31:53.829Z,27.20
2023-07-05T19:34:39.679Z,27.20
2023-07-05T19:37:25.401Z,27.20
2023-07-05T19:40:11.251Z,27.10
2023-07-05T19:42:56.886Z,27.10
2023-07-05T19:45:42.526Z,27.10
2023-07-05T19:48:28.016Z,27.00
2023-07-05T19:51:14.062Z,27.00
2023-07-05T19:53:59.725Z,27.00
2023-07-05T19:56:46.370Z,26.90
2023-07-05T19:59:33.138Z,26.90
2023-07-05T20:02:18.849Z,26.80
2023-07-05T20:05:04.890Z,26.80
2023-07-05T20:07:50.487Z,26.80
2023-07-05T20:10:37.329Z,26.80
2023-07-05T20:13:23.011Z,26.70
2023-07-05T20:16:09.978Z,26.60
2023-07-05T20:18:55.410Z,26.60
2023-07-05T20:21:41.603Z,26.50
2023-07-05T20:24:27.680Z,26.50
2023-07-05T20:27:14.054Z,26.40
2023-07-05T20:29:59.698Z,26.50
2023-07-05T20:32:45.648Z,26.40
2023-07-05T20:35:31.539Z,26.40
2023-07-05T20:38:19.605Z,26.30
2023-07-05T20:41:07.169Z,26.30
2023-07-05T20:43:52.833Z,26.20
2023-07-05T20:46:38.678Z,26.20
2023-07-05T20:49:24.967Z,26.20
2023-07-05T20:52:11.120Z,26.10
2023-07-05T20:54:57.993Z,26.10
2023-07-05T20:57:43.408Z,26.10
2023-07-05T21:00:29.786Z,26.00
2023-07-05T21:03:18.348Z,26.00
2023-07-05T21:06:06.005Z,25.90
2023-07-05T21:08:52.358Z,25.80
2023-07-05T21:11:38.026Z,25.80
2023-07-05T21:14:23.681Z,25.80
2023-07-05T21:17:10.563Z,25.70
2023-07-05T21:19:56.225Z,25.60
2023-07-05T21:22:42.329Z,25.60
2023-07-05T21:25:28.939Z,25.60
2023-07-05T21:28:15.230Z,25.50
2023-07-05T21:31:01.972Z,25.60
2023-07-05T21:33:47.984Z,25.50
2023-07-05T21:36:33.693Z,25.50
2023-07-05T21:39:20.658Z,25.50
2023-07-05T21:42:08.127Z,25.50
2023-07-05T21:44:53.872Z,25.40
2023-07-05T21:47:41.286Z,25.40
2023-07-05T21:50:29.361Z,25.40
2023-07-05T21:53:15.310Z,25.30
2023-07-05T21:56:01.778Z,25.20
2023-07-05T21:58:47.676Z,25.20
2023-07-05T22:01:36.499Z,25.20
2023-07-05T22:04:23.996Z,25.20
2023-07-05T22:07:11.008Z,25.20
2023-07-05T22:09:56.734Z,25.20
2023-07-05T22:12:44.712Z,25.10
2023-07-05T22:15:34.936Z,25.20
2023-07-05T22:18:20.886Z,25.20
2023-07-05T22:21:07.522Z,25.20
2023-07-05T22:23:53.385Z,25.10
2023-07-05T22:26:40.242Z,25.10
2023-07-05T22:29:26.206Z,25.10
2023-07-05T22:32:14.150Z,25.40
2023-07-05T22:35:03.010Z,25.00
2023-07-05T22:37:48.989Z,25.00
2023-07-05T22:40:37.669Z,25.00
2023-07-05T22:43:23.403Z,25.00
2023-07-05T22:46:10.388Z,24.90
2023-07-05T22:48:55.736Z,24.90
2023-07-05T22:51:41.767Z,24.80
2023-07-05T22:54:27.414Z,24.80
2023-07-05T22:57:15.284Z,24.80
2023-07-05T23:00:01.055Z,24.70
2023-07-05T23:02:46.807Z,24.60
2023-07-05T23:05:32.632Z,24.50
2023-07-05T23:08:19.351Z,24.50
2023-07-05T23:11:09.435Z,24.40
2023-07-05T23:13:55.343Z,24.40
2023-07-05T23:16:46.495Z,24.30
2023-07-05T23:19:32.438Z,24.20
2023-07-05T23:22:18.330Z,24.20
2023-07-05T23:25:04.300Z,24.30
2023-07-05T23:27:51.169Z,24.30
2023-07-05T23:30:36.973Z,24.40
2023-07-05T23:33:22.873Z,24.40
2023-07-05T23:36:08.692Z,24.30
2023-07-05T23:38:54.823Z,24.20
2023-07-05T23:41:40.542Z,24.20
2023-07-05T23:44:26.582Z,24.20
2023-07-05T23:47:12.308Z,24.20
2023-07-05T23:49:58.134Z,24.20
2023-07-05T23:52:43.877Z,24.20
2023-07-05T23:55:30.065Z,24.20
2023-07-05T23:58:15.895Z,24.10
